Assawoman, Virginia
Current Conditions -  °F | °C
As of 6:54 AM on Sunday 25 Jan 2015 (Local Time) from KWAL Reporting Station
Clear Clear  
Wind Chill: 30°   Ceiling: Unl
Heat Index: 36°   Visibility: 10mi
Dew Point: 29°   Wind: 7mph
Humidity: 76%   Direction: 310°NW
Pressure: 29.85"   Gusts: NA
Location:  37.88°N, 75.53°W
Report Text: KWAL 251154Z AUTO 31006KT 10SM CLR 02/M02 A2985 RMK AO2 SLP103 70043 T00221017 10022 20011 51028
Loading
Personal Weather Stations






























Interactive Weather Map New forecast layout! Learn more

10-Day Weather Forecast

Advertisements
Track Severe Weather on mobile